createdAt,value
2022-08-12T00:00:53.754Z,18.70
2022-08-12T00:03:39.444Z,18.60
2022-08-12T00:06:25.969Z,18.60
2022-08-12T00:09:11.363Z,18.50
2022-08-12T00:11:58.117Z,18.50
2022-08-12T00:14:43.655Z,18.40
2022-08-12T00:17:29.313Z,18.30
2022-08-12T00:20:14.815Z,18.30
2022-08-12T00:23:01.493Z,18.20
2022-08-12T00:26:21.589Z,18.20
2022-08-12T00:29:04.825Z,18.20
2022-08-12T00:31:50.418Z,18.20
2022-08-12T00:34:36.511Z,18.10
2022-08-12T00:37:22.848Z,18.10
2022-08-12T00:40:10.995Z,18.00
2022-08-12T00:42:39.906Z,18.00
2022-08-12T00:45:10.094Z,18.00
2022-08-12T00:47:40.489Z,18.00
2022-08-12T00:50:17.652Z,18.00
2022-08-12T00:52:47.032Z,18.00
2022-08-12T00:55:15.530Z,18.00
2022-08-12T00:57:47.833Z,17.90
2022-08-12T01:00:21.459Z,17.90
2022-08-12T01:02:52.772Z,17.80
2022-08-12T01:05:40.264Z,17.80
2022-08-12T01:08:26.745Z,17.80
2022-08-12T01:11:14.235Z,17.70
2022-08-12T01:13:47.233Z,17.80
2022-08-12T01:16:18.041Z,17.80
2022-08-12T01:18:46.387Z,17.80
2022-08-12T01:21:41.512Z,17.90
2022-08-12T01:24:28.011Z,17.90
2022-08-12T01:27:02.478Z,17.90
2022-08-12T01:29:34.516Z,17.90
2022-08-12T01:32:08.563Z,17.80
2022-08-12T01:34:38.724Z,17.80
2022-08-12T01:37:08.872Z,17.80
2022-08-12T01:40:33.231Z,17.80
2022-08-12T01:42:34.039Z,17.80
2022-08-12T01:45:03.686Z,17.80
2022-08-12T01:47:47.250Z,17.70
2022-08-12T01:50:22.260Z,17.70
2022-08-12T01:53:01.822Z,17.70
2022-08-12T01:55:33.468Z,17.70
2022-08-12T01:58:23.654Z,17.70
2022-08-12T02:00:59.119Z,17.60
2022-08-12T02:04:03.569Z,17.60
2022-08-12T02:06:55.284Z,17.60
2022-08-12T02:09:58.428Z,17.60
2022-08-12T02:12:41.182Z,17.50
2022-08-12T02:15:22.570Z,17.50
2022-08-12T02:21:21.391Z,17.40
2022-08-12T02:24:14.448Z,17.40
2022-08-12T02:33:25.683Z,17.30
2022-08-12T02:53:10.111Z,17.00
2022-08-12T02:55:37.953Z,17.00
2022-08-12T02:58:12.373Z,17.00
2022-08-12T03:00:44.334Z,17.00
2022-08-12T03:03:14.580Z,17.00
2022-08-12T03:05:49.203Z,17.10
2022-08-12T03:08:32.545Z,17.10
2022-08-12T03:11:06.155Z,17.10
2022-08-12T03:13:43.198Z,17.00
2022-08-12T03:16:11.158Z,17.00
2022-08-12T03:18:45.548Z,17.00
2022-08-12T03:21:17.324Z,17.00
2022-08-12T03:24:08.907Z,17.00
2022-08-12T03:26:38.500Z,17.00
2022-08-12T03:29:07.607Z,16.90
2022-08-12T03:31:35.654Z,17.00
2022-08-12T03:34:06.514Z,17.00
2022-08-12T03:36:36.236Z,16.90
2022-08-12T03:39:36.105Z,16.90
2022-08-12T03:42:23.064Z,16.90
2022-08-12T03:45:15.586Z,16.90
2022-08-12T03:48:06.428Z,16.80
2022-08-12T03:50:52.044Z,16.80
2022-08-12T03:53:44.220Z,16.80
2022-08-12T03:56:31.625Z,16.70
2022-08-12T03:59:18.817Z,16.70
2022-08-12T04:01:52.531Z,16.70
2022-08-12T04:04:22.568Z,16.60
2022-08-12T04:06:51.325Z,16.60
2022-08-12T04:09:22.170Z,16.60
2022-08-12T04:12:09.357Z,16.70
2022-08-12T04:14:37.698Z,16.70
2022-08-12T04:17:06.111Z,16.70
2022-08-12T04:19:34.249Z,16.70
2022-08-12T04:22:03.731Z,16.80
2022-08-12T04:24:34.535Z,16.80
2022-08-12T04:27:09.299Z,16.80
2022-08-12T04:30:16.685Z,16.80
2022-08-12T04:32:26.105Z,16.80
2022-08-12T04:34:54.606Z,16.80
2022-08-12T04:37:23.181Z,16.80
2022-08-12T04:39:52.028Z,16.90
2022-08-12T04:42:21.574Z,16.90
2022-08-12T04:44:49.481Z,16.90
2022-08-12T04:47:17.970Z,16.90
2022-08-12T04:49:48.069Z,16.90
2022-08-12T04:52:16.158Z,16.90
2022-08-12T04:54:44.589Z,16.90
2022-08-12T04:57:12.601Z,16.90
2022-08-12T04:59:47.766Z,17.00
2022-08-12T05:02:21.212Z,17.00
2022-08-12T05:04:51.389Z,17.10
2022-08-12T05:07:19.304Z,17.10
2022-08-12T05:10:00.714Z,17.10
2022-08-12T05:12:36.440Z,17.10
2022-08-12T05:15:19.848Z,17.20
2022-08-12T05:17:56.341Z,17.20
2022-08-12T05:20:28.119Z,17.20
2022-08-12T05:23:12.559Z,17.30
2022-08-12T05:25:43.042Z,17.40
2022-08-12T05:28:12.906Z,17.40
2022-08-12T05:30:43.302Z,17.50
2022-08-12T05:33:13.105Z,17.50
2022-08-12T05:35:42.864Z,17.50
2022-08-12T05:38:29.603Z,17.60
2022-08-12T05:40:57.552Z,17.70
2022-08-12T05:43:25.508Z,17.70
2022-08-12T05:45:54.830Z,17.80
2022-08-12T05:48:25.976Z,17.90
2022-08-12T05:50:54.042Z,18.00
2022-08-12T05:53:21.812Z,18.10
2022-08-12T05:55:49.623Z,18.10
2022-08-12T05:58:17.516Z,18.20
2022-08-12T06:00:45.312Z,18.30
2022-08-12T06:03:17.524Z,18.40
2022-08-12T06:05:54.617Z,18.50
2022-08-12T06:08:24.451Z,18.50
2022-08-12T06:10:52.531Z,18.60
2022-08-12T06:13:27.873Z,18.70
2022-08-12T06:15:56.877Z,18.80
2022-08-12T06:18:29.794Z,18.90
2022-08-12T06:20:59.025Z,19.00
2022-08-12T06:23:30.137Z,19.10
2022-08-12T06:25:59.482Z,19.20
2022-08-12T06:28:30.404Z,19.30
2022-08-12T06:34:00.399Z,19.50
2022-08-12T06:36:38.133Z,19.60
2022-08-12T06:39:14.793Z,19.70
2022-08-12T06:42:02.426Z,19.70
2022-08-12T06:44:50.268Z,19.80
2022-08-12T06:47:19.394Z,19.90
2022-08-12T06:49:49.430Z,20.00
2022-08-12T06:52:19.274Z,20.10
2022-08-12T06:54:47.098Z,20.20
2022-08-12T06:57:57.480Z,20.30
2022-08-12T07:00:02.809Z,20.40
2022-08-12T07:02:33.755Z,20.50
2022-08-12T07:05:10.146Z,20.70
2022-08-12T07:07:38.914Z,20.80
2022-08-12T07:10:08.478Z,20.80
2022-08-12T07:12:36.698Z,20.90
2022-08-12T07:15:06.432Z,21.00
2022-08-12T07:17:37.603Z,21.10
2022-08-12T07:20:29.575Z,21.30
2022-08-12T07:23:00.402Z,21.40
2022-08-12T07:25:40.951Z,21.50
2022-08-12T07:28:17.074Z,21.60
2022-08-12T07:30:48.380Z,21.70
2022-08-12T07:33:16.931Z,21.80
2022-08-12T07:35:47.989Z,21.90
2022-08-12T07:38:29.470Z,22.00
2022-08-12T07:41:02.281Z,22.00
2022-08-12T07:43:31.026Z,22.10
2022-08-12T07:46:00.186Z,22.20
2022-08-12T07:48:28.403Z,22.30
2022-08-12T07:50:57.577Z,22.40
2022-08-12T07:53:25.400Z,22.50
2022-08-12T07:55:53.201Z,22.60
2022-08-12T07:58:22.073Z,22.70
2022-08-12T08:00:50.031Z,22.70
2022-08-12T08:03:17.955Z,22.90
2022-08-12T08:05:46.808Z,22.90
2022-08-12T08:08:17.625Z,23.00
2022-08-12T08:10:46.223Z,23.20
2022-08-12T08:13:13.705Z,23.30
2022-08-12T08:16:02.520Z,23.40
2022-08-12T08:18:30.201Z,23.40
2022-08-12T08:20:58.080Z,23.50
2022-08-12T08:23:55.563Z,23.60
2022-08-12T08:26:26.910Z,23.60
2022-08-12T08:28:54.778Z,23.60
2022-08-12T08:31:22.562Z,23.60
2022-08-12T08:34:09.344Z,23.70
2022-08-12T08:36:39.312Z,23.90
2022-08-12T08:39:09.029Z,24.00
2022-08-12T08:42:16.225Z,24.10
2022-08-12T08:44:43.530Z,24.20
2022-08-12T08:47:12.890Z,24.40
2022-08-12T08:53:27.753Z,24.60
2022-08-12T08:56:05.604Z,24.80
2022-08-12T08:58:33.659Z,24.90
2022-08-12T09:01:01.603Z,25.00
2022-08-12T09:05:09.367Z,25.10
2022-08-12T09:06:19.827Z,25.10
2022-08-12T09:09:13.102Z,25.30
2022-08-12T09:12:10.639Z,25.40
2022-08-12T09:17:43.004Z,25.50
2022-08-12T09:20:16.676Z,25.70
2022-08-12T09:22:49.152Z,25.80
2022-08-12T09:25:25.479Z,25.90
2022-08-12T09:30:48.058Z,26.10
2022-08-12T09:34:25.784Z,26.20
2022-08-12T09:36:07.219Z,26.30
2022-08-12T09:38:35.524Z,26.40
2022-08-12T09:42:32.813Z,26.50
2022-08-12T09:44:38.083Z,26.60
2022-08-12T09:46:58.853Z,26.70
2022-08-12T09:49:28.130Z,26.70
2022-08-12T09:51:57.233Z,26.70
2022-08-12T09:54:32.957Z,26.80
2022-08-12T09:58:46.418Z,26.90
2022-08-12T10:00:17.559Z,26.90
2022-08-12T10:03:32.694Z,27.00
2022-08-12T10:06:20.279Z,27.00
2022-08-12T10:08:52.444Z,27.20
2022-08-12T10:11:41.357Z,27.30
2022-08-12T10:14:34.574Z,27.30
2022-08-12T10:17:08.998Z,27.40
2022-08-12T10:19:37.731Z,27.50
2022-08-12T10:22:06.027Z,27.60
2022-08-12T10:25:17.133Z,27.60
2022-08-12T10:28:03.739Z,27.70
2022-08-12T10:30:39.700Z,27.70
2022-08-12T10:33:18.053Z,27.80
2022-08-12T10:35:47.334Z,27.80
2022-08-12T10:38:35.574Z,27.80
2022-08-12T10:41:58.100Z,27.80
2022-08-12T10:44:16.851Z,27.90
2022-08-12T10:46:49.366Z,27.90
2022-08-12T10:50:07.045Z,27.90
2022-08-12T10:52:34.741Z,28.10
2022-08-12T10:54:56.386Z,28.10
2022-08-12T10:58:13.573Z,28.30
2022-08-12T11:00:31.387Z,28.30
2022-08-12T11:04:25.451Z,28.30
2022-08-12T11:07:06.418Z,28.40
2022-08-12T11:08:43.362Z,28.40
2022-08-12T11:11:22.018Z,28.40
2022-08-12T11:14:05.906Z,28.50
2022-08-12T11:16:33.839Z,28.50
2022-08-12T11:19:05.597Z,28.60
2022-08-12T11:21:56.316Z,28.70
2022-08-12T11:24:31.810Z,28.70
2022-08-12T11:27:01.744Z,28.70
2022-08-12T11:30:03.728Z,28.70
2022-08-12T11:32:24.707Z,28.80
2022-08-12T11:34:54.793Z,28.80
2022-08-12T11:37:26.526Z,28.80
2022-08-12T11:42:35.106Z,28.90
2022-08-12T11:45:04.098Z,29.00
2022-08-12T11:47:33.029Z,29.00
2022-08-12T11:50:01.370Z,29.00
2022-08-12T11:53:02.312Z,29.10
2022-08-12T11:55:18.653Z,29.10
2022-08-12T11:58:34.185Z,29.10
2022-08-12T12:03:44.032Z,29.10
2022-08-12T12:06:16.759Z,29.20
2022-08-12T12:08:51.611Z,29.20
2022-08-12T12:11:21.937Z,29.20
2022-08-12T12:14:07.709Z,29.30
2022-08-12T12:16:40.004Z,29.40
2022-08-12T12:19:10.395Z,29.40
2022-08-12T12:21:48.101Z,29.50
2022-08-12T12:24:21.879Z,29.50
2022-08-12T12:27:00.635Z,29.50
2022-08-12T12:30:17.491Z,29.50
2022-08-12T12:32:18.385Z,29.60
2022-08-12T12:35:14.418Z,29.60
2022-08-12T12:38:04.003Z,29.70
2022-08-12T12:40:29.883Z,29.70
2022-08-12T12:43:01.882Z,29.80
2022-08-12T12:45:35.583Z,29.70
2022-08-12T12:48:05.161Z,29.70
2022-08-12T12:50:45.022Z,29.80
2022-08-12T12:54:06.491Z,29.80
2022-08-12T12:56:16.670Z,29.70
2022-08-12T12:58:44.893Z,29.80
2022-08-12T13:01:25.503Z,29.80
2022-08-12T13:03:56.395Z,29.90
2022-08-12T13:06:31.442Z,29.90
2022-08-12T13:09:02.589Z,29.80
2022-08-12T13:11:41.592Z,29.90
2022-08-12T13:14:28.101Z,29.90
2022-08-12T13:17:00.947Z,29.90
2022-08-12T13:19:38.873Z,29.90
2022-08-12T13:22:21.127Z,30.00
2022-08-12T13:24:55.008Z,29.90
2022-08-12T13:27:35.778Z,30.00
2022-08-12T13:30:11.699Z,30.00
2022-08-12T13:32:41.818Z,30.00
2022-08-12T13:35:20.049Z,30.00
2022-08-12T13:38:02.670Z,30.10
2022-08-12T13:40:32.966Z,30.10
2022-08-12T13:43:06.223Z,30.20
2022-08-12T13:45:36.642Z,30.20
2022-08-12T13:48:06.530Z,30.20
2022-08-12T13:50:37.414Z,30.20
2022-08-12T13:53:23.291Z,30.30
2022-08-12T13:55:59.289Z,30.20
2022-08-12T13:58:30.165Z,30.20
2022-08-12T14:00:59.770Z,30.20
2022-08-12T14:03:28.594Z,30.20
2022-08-12T14:06:17.920Z,30.20
2022-08-12T14:08:49.580Z,30.20
2022-08-12T14:11:19.201Z,30.30
2022-08-12T14:14:03.505Z,30.30
2022-08-12T14:16:48.559Z,30.30
2022-08-12T14:19:24.544Z,30.30
2022-08-12T14:22:00.725Z,30.20
2022-08-12T14:24:36.962Z,30.20
2022-08-12T14:27:10.273Z,30.20
2022-08-12T14:30:05.684Z,30.20
2022-08-12T14:32:34.624Z,30.20
2022-08-12T14:35:03.903Z,30.10
2022-08-12T14:37:55.936Z,30.10
2022-08-12T14:40:27.781Z,30.10
2022-08-12T14:42:57.305Z,30.10
2022-08-12T14:45:44.471Z,30.10
2022-08-12T14:48:16.637Z,30.00
2022-08-12T14:51:07.598Z,30.00
2022-08-12T14:59:57.568Z,30.10
2022-08-12T15:02:28.505Z,30.00
2022-08-12T15:04:58.984Z,30.00
2022-08-12T15:07:33.687Z,29.90
2022-08-12T15:10:13.317Z,30.00
2022-08-12T15:12:41.588Z,30.00
2022-08-12T15:15:11.398Z,30.00
2022-08-12T15:17:40.927Z,30.10
2022-08-12T15:20:32.570Z,30.10
2022-08-12T15:22:58.099Z,30.10
2022-08-12T15:25:26.014Z,30.10
2022-08-12T15:28:03.902Z,30.10
2022-08-12T15:30:42.081Z,30.10
2022-08-12T15:33:18.911Z,30.10
2022-08-12T15:35:53.421Z,30.00
2022-08-12T15:38:25.160Z,30.00
2022-08-12T15:40:54.881Z,30.00
2022-08-12T15:44:16.396Z,30.00
2022-08-12T15:46:15.131Z,29.90
2022-08-12T15:48:48.450Z,29.90
2022-08-12T15:51:59.011Z,29.90
2022-08-12T15:54:35.231Z,29.90
2022-08-12T15:57:07.838Z,29.80
2022-08-12T16:00:02.365Z,29.80
2022-08-12T16:02:26.778Z,29.70
2022-08-12T16:04:56.565Z,29.60
2022-08-12T16:07:30.039Z,29.70
2022-08-12T16:10:05.905Z,29.60
2022-08-12T16:12:41.845Z,29.60
2022-08-12T16:15:10.871Z,29.60
2022-08-12T16:18:14.441Z,29.50
2022-08-12T16:20:33.517Z,29.50
2022-08-12T16:23:35.776Z,29.50
2022-08-12T16:26:05.634Z,29.50
2022-08-12T16:28:38.495Z,29.40
2022-08-12T16:31:09.779Z,29.40
2022-08-12T16:33:59.921Z,29.40
2022-08-12T16:36:30.550Z,29.30
2022-08-12T16:39:01.437Z,29.10
2022-08-12T16:41:39.724Z,29.00
2022-08-12T16:44:08.457Z,29.00
2022-08-12T16:46:37.744Z,29.00
2022-08-12T16:49:13.927Z,29.00
2022-08-12T16:51:46.555Z,28.90
2022-08-12T16:54:16.920Z,28.90
2022-08-12T16:56:51.155Z,28.80
2022-08-12T16:59:23.003Z,28.80
2022-08-12T17:01:51.968Z,28.70
2022-08-12T17:04:24.421Z,28.60
2022-08-12T17:06:54.190Z,28.50
2022-08-12T17:09:22.823Z,28.50
2022-08-12T17:11:50.698Z,28.50
2022-08-12T17:14:23.635Z,28.50
2022-08-12T17:16:55.266Z,28.40
2022-08-12T17:20:02.578Z,28.40
2022-08-12T17:22:16.347Z,28.30
2022-08-12T17:24:54.409Z,28.20
2022-08-12T17:27:24.634Z,28.10
2022-08-12T17:30:02.861Z,28.00
2022-08-12T17:32:33.469Z,27.90
2022-08-12T17:35:19.745Z,27.90
2022-08-12T17:37:50.682Z,27.80
2022-08-12T17:40:34.868Z,27.80
2022-08-12T17:43:55.899Z,27.70
2022-08-12T17:45:58.888Z,27.70
2022-08-12T17:48:35.216Z,27.60
2022-08-12T17:51:15.224Z,27.50
2022-08-12T17:54:05.752Z,27.40
2022-08-12T17:56:37.880Z,27.30
2022-08-12T17:59:12.523Z,27.20
2022-08-12T18:01:44.307Z,27.10
2022-08-12T18:04:21.391Z,27.10
2022-08-12T18:06:50.915Z,27.00
2022-08-12T18:09:21.671Z,26.90
2022-08-12T18:12:11.505Z,26.90
2022-08-12T18:14:41.006Z,26.80
2022-08-12T18:17:21.418Z,26.70
2022-08-12T18:20:07.122Z,26.50
2022-08-12T18:22:36.309Z,26.50
2022-08-12T18:26:12.470Z,26.40
2022-08-12T18:28:16.026Z,26.30
2022-08-12T18:30:53.238Z,26.20
2022-08-12T18:33:25.660Z,26.20
2022-08-12T18:35:57.173Z,26.10
2022-08-12T18:38:27.866Z,26.00
2022-08-12T18:41:20.828Z,25.90
2022-08-12T18:44:02.704Z,25.80
2022-08-12T18:46:54.374Z,25.70
2022-08-12T18:49:29.773Z,25.60
2022-08-12T18:52:04.856Z,25.50
2022-08-12T18:54:35.923Z,25.40
2022-08-12T18:57:19.662Z,25.30
2022-08-12T19:00:07.065Z,25.30
2022-08-12T19:02:46.333Z,25.10
2022-08-12T19:05:18.720Z,25.00
2022-08-12T19:08:00.635Z,24.90
2022-08-12T19:10:31.816Z,24.90
2022-08-12T19:13:23.185Z,24.80
2022-08-12T19:15:53.433Z,24.70
2022-08-12T19:18:24.343Z,24.70
2022-08-12T19:20:58.791Z,24.60
2022-08-12T19:23:35.116Z,24.60
2022-08-12T19:26:03.773Z,24.50
2022-08-12T19:28:36.543Z,24.50
2022-08-12T19:31:56.093Z,24.40
2022-08-12T19:35:24.122Z,24.40
2022-08-12T19:37:20.079Z,24.30
2022-08-12T19:40:08.724Z,24.20
2022-08-12T19:42:44.514Z,24.20
2022-08-12T19:45:15.829Z,24.10
2022-08-12T19:47:44.736Z,24.00
2022-08-12T19:50:19.923Z,24.00
2022-08-12T19:52:51.047Z,23.90
2022-08-12T19:55:21.782Z,23.90
2022-08-12T19:58:01.351Z,23.80
2022-08-12T20:00:34.521Z,23.70
2022-08-12T20:03:05.200Z,23.70
2022-08-12T20:06:06.684Z,23.60
2022-08-12T20:08:32.838Z,23.60
2022-08-12T20:12:10.297Z,23.50
2022-08-12T20:14:01.225Z,23.50
2022-08-12T20:16:57.215Z,23.40
2022-08-12T20:19:28.506Z,23.30
2022-08-12T20:22:24.736Z,23.30
2022-08-12T20:25:01.415Z,23.20
2022-08-12T20:28:03.255Z,23.10
2022-08-12T20:30:37.260Z,23.10
2022-08-12T20:33:18.848Z,23.10
2022-08-12T20:36:07.005Z,23.00
2022-08-12T20:38:40.562Z,23.00
2022-08-12T20:41:16.199Z,22.90
2022-08-12T20:43:45.733Z,22.90
2022-08-12T20:46:15.190Z,22.90
2022-08-12T20:48:47.045Z,22.80
2022-08-12T20:51:23.528Z,22.80
2022-08-12T20:53:57.765Z,22.70
2022-08-12T20:56:31.611Z,22.70
2022-08-12T20:59:01.458Z,22.70
2022-08-12T21:01:46.216Z,22.60
2022-08-12T21:04:36.647Z,22.50
2022-08-12T21:07:09.230Z,22.50
2022-08-12T21:09:41.449Z,22.40
2022-08-12T21:12:37.521Z,22.30
2022-08-12T21:15:22.951Z,22.30
2022-08-12T21:18:08.136Z,22.30
2022-08-12T21:20:42.009Z,22.20
2022-08-12T21:23:09.886Z,22.10
2022-08-12T21:25:45.054Z,22.10
2022-08-12T21:28:14.244Z,22.10
2022-08-12T21:31:11.637Z,22.00
2022-08-12T21:33:31.689Z,22.00
2022-08-12T21:36:02.722Z,22.00
2022-08-12T21:38:34.463Z,21.90
2022-08-12T21:41:07.015Z,21.90
2022-08-12T21:43:45.167Z,21.80
2022-08-12T21:46:34.700Z,21.70
2022-08-12T21:49:05.599Z,21.70
2022-08-12T21:51:36.020Z,21.60
2022-08-12T21:54:21.946Z,21.60
2022-08-12T21:56:53.656Z,21.60
2022-08-12T21:59:22.015Z,21.50
2022-08-12T22:01:50.268Z,21.40
2022-08-12T22:04:36.310Z,21.50
2022-08-12T22:07:07.036Z,21.40
2022-08-12T22:09:43.159Z,21.40
2022-08-12T22:12:29.946Z,21.40
2022-08-12T22:14:57.825Z,21.30
2022-08-12T22:17:33.640Z,21.30
2022-08-12T22:20:17.924Z,21.20
2022-08-12T22:22:56.497Z,21.20
2022-08-12T22:25:27.759Z,21.20
2022-08-12T22:28:13.232Z,21.10
2022-08-12T22:30:59.430Z,21.10
2022-08-12T22:33:27.340Z,21.00
2022-08-12T22:35:59.703Z,21.00
2022-08-12T22:38:30.310Z,21.00
2022-08-12T22:41:00.877Z,20.90
2022-08-12T22:43:59.134Z,20.90
2022-08-12T22:46:52.092Z,20.90
2022-08-12T22:49:36.520Z,20.90
2022-08-12T22:52:14.300Z,20.80
2022-08-12T22:55:02.704Z,20.80
2022-08-12T22:57:49.273Z,20.70
2022-08-12T23:00:23.953Z,20.70
2022-08-12T23:03:00.467Z,20.60
2022-08-12T23:05:57.406Z,20.60
2022-08-12T23:08:22.239Z,20.60
2022-08-12T23:10:51.752Z,20.60
2022-08-12T23:13:42.997Z,20.50
2022-08-12T23:16:28.202Z,20.50
2022-08-12T23:19:01.523Z,20.50
2022-08-12T23:22:03.776Z,20.50
2022-08-12T23:24:26.606Z,20.40
2022-08-12T23:27:13.521Z,20.40
2022-08-12T23:29:43.968Z,20.40
2022-08-12T23:32:35.614Z,20.40
2022-08-12T23:35:06.603Z,20.30
2022-08-12T23:37:47.137Z,20.30
2022-08-12T23:40:22.474Z,20.30
2022-08-12T23:42:55.097Z,20.30
2022-08-12T23:45:31.797Z,20.20
2022-08-12T23:48:02.647Z,20.20
2022-08-12T23:50:34.086Z,20.10
2022-08-12T23:53:05.290Z,20.10
2022-08-12T23:55:35.843Z,20.10
2022-08-12T23:58:21.589Z,20.00
